Aérodrome :
LOGIN :

S'inscrire | Disclaimer

   EN    FR    IT 

 










Légende :    VFR   VFR Marginal   IFR   IFR Intensif   IFR Très Intensif
Visi : 
Plafond : 
>= 8 km
>= 3000ft
5 à 8 km
1000 à 3000 ft
1500m à 5 km
500 à 1000 ft
800 à 1500m
200 à 500 ft
< 800m
< 200 ft
Symboles :   Orages  Brouillard  Fortes neiges  Fortes précipitations  Vent > 20 kt
SIGMETs :   Divers  Orages  Givrage  Turbulence  Onde Orograph.  Cendres Volcan.






- Altitude de l'aérodrome : 776 ft
- Code IATA : RMS


ETAR - Ramstein Air Base

DERNIER METAR :
  • 241511Z 10004KT 9999 OVC009 06/06 A3019 RMK AO2A SLP236 FZRANO $

METARs EXPIRÉS :
  • 241456Z 08005KT 9999 OVC010 05/05 A3020 RMK AO2A SLP240 T00540054 57018 FZRANO $
  • 241356Z 10004KT 9999 OVC010 06/06 A3021 RMK AO2A SLP243 T00580058 FZRANO $
  • 241311Z 36003KT 9999 OVC010 05/05 A3022 RMK AO2A SLP246 FZRANO $
  • 241256Z 36003KT 9999 OVC009 05/05 A3023 RMK AO2A CIG 008 RWY08 SLP250 T00530053 FZRANO $
  • 241241Z 00000KT 9999 OVC009 05/05 A3023 RMK AO2A CIG 007V009 CIG 007 RWY08 SLP250 FZRANO $

TAF AMD TAF ETAR
Valide du 24 à 13h jusqu'au 25 à 16h UTC


241300Z 2413/2516 12006KT 9999 BKN010 QNH3018INS
BECMG 2417/2418 VRB06KT 6000 BR SCT002 BKN008 QNH3014INS
BECMG 2421/2422 16006KT 0400 FG VV001 QNH3008INS
BECMG 2505/2506 18006KT 3200 BR FEW002 QNH3008INS
BECMG 2507/2508 20009KT 9999 NSW SCT002 BKN015 QNH3008INS TX07/2413Z TN01/2503Z



MET'MAP, la Météo Aéronautique d'un coup d'oeil ! - Copyright ORBIFLY Décembre 2007 - Disclaimer

ORBIFLY MET'MAP TEAM :

Programmation & Développement : Alexandra Zaïnal
Sur une idée originale de : Baudouin d'Aumeries
Assistance à la programmation : Marc-Olivier Méhu
Soutien technique & logistique : Manuel Goepfert

Contact : metmap@orbifly.com




SOURCES & CREDITS :

   NOAA